sensor_id;sensor_type;location;lat;lon;timestamp;P1;durP1;ratioP1;P2;durP2;ratioP2
49460;SDS011;35355;49.198;-0.368;2023-05-07T00:01:37;10.80;;;1.77;;
49460;SDS011;35355;49.198;-0.368;2023-05-07T00:04:02;6.05;;;2.05;;
49460;SDS011;35355;49.198;-0.368;2023-05-07T00:06:28;6.50;;;1.85;;
49460;SDS011;35355;49.198;-0.368;2023-05-07T00:08:54;4.70;;;2.00;;
49460;SDS011;35355;49.198;-0.368;2023-05-07T00:11:21;9.07;;;1.90;;
49460;SDS011;35355;49.198;-0.368;2023-05-07T00:13:47;7.60;;;1.85;;
49460;SDS011;35355;49.198;-0.368;2023-05-07T00:16:13;11.43;;;2.53;;
49460;SDS011;35355;49.198;-0.368;2023-05-07T00:18:38;3.15;;;1.90;;
49460;SDS011;35355;49.198;-0.368;2023-05-07T00:21:03;5.38;;;1.90;;
49460;SDS011;35355;49.198;-0.368;2023-05-07T00:23:29;6.55;;;2.13;;
49460;SDS011;35355;49.198;-0.368;2023-05-07T00:25:54;8.68;;;2.15;;
49460;SDS011;35355;49.198;-0.368;2023-05-07T00:28:20;5.47;;;1.90;;
49460;SDS011;35355;49.198;-0.368;2023-05-07T00:30:46;5.47;;;1.90;;
49460;SDS011;35355;49.198;-0.368;2023-05-07T00:33:11;7.18;;;1.95;;
49460;SDS011;35355;49.198;-0.368;2023-05-07T00:35:36;8.07;;;1.80;;
49460;SDS011;35355;49.198;-0.368;2023-05-07T00:38:02;9.45;;;2.13;;
49460;SDS011;35355;49.198;-0.368;2023-05-07T00:40:27;9.55;;;1.83;;
49460;SDS011;35355;49.198;-0.368;2023-05-07T00:42:53;5.18;;;1.33;;
49460;SDS011;35355;49.198;-0.368;2023-05-07T00:45:21;3.53;;;1.35;;
49460;SDS011;35355;49.198;-0.368;2023-05-07T00:47:48;3.40;;;1.30;;
49460;SDS011;35355;49.198;-0.368;2023-05-07T00:50:13;8.63;;;1.60;;
49460;SDS011;35355;49.198;-0.368;2023-05-07T00:52:39;6.60;;;2.00;;
49460;SDS011;35355;49.198;-0.368;2023-05-07T00:55:04;5.43;;;1.92;;
49460;SDS011;35355;49.198;-0.368;2023-05-07T00:57:37;8.13;;;2.00;;
49460;SDS011;35355;49.198;-0.368;2023-05-07T01:00:05;7.65;;;2.03;;
49460;SDS011;35355;49.198;-0.368;2023-05-07T01:02:33;4.03;;;1.40;;
49460;SDS011;35355;49.198;-0.368;2023-05-07T01:04:59;4.80;;;1.65;;
49460;SDS011;35355;49.198;-0.368;2023-05-07T01:07:25;3.58;;;1.42;;
49460;SDS011;35355;49.198;-0.368;2023-05-07T01:09:52;5.10;;;1.80;;
49460;SDS011;35355;49.198;-0.368;2023-05-07T01:12:18;5.25;;;1.75;;
49460;SDS011;35355;49.198;-0.368;2023-05-07T01:14:44;4.50;;;1.95;;
49460;SDS011;35355;49.198;-0.368;2023-05-07T01:17:09;8.77;;;2.17;;
49460;SDS011;35355;49.198;-0.368;2023-05-07T01:19:34;17.17;;;2.30;;
49460;SDS011;35355;49.198;-0.368;2023-05-07T01:22:02;7.70;;;1.48;;
49460;SDS011;35355;49.198;-0.368;2023-05-07T01:24:32;4.97;;;1.75;;
49460;SDS011;35355;49.198;-0.368;2023-05-07T01:26:58;5.72;;;1.83;;
49460;SDS011;35355;49.198;-0.368;2023-05-07T01:29:23;5.05;;;1.70;;
49460;SDS011;35355;49.198;-0.368;2023-05-07T01:31:48;7.78;;;1.67;;
49460;SDS011;35355;49.198;-0.368;2023-05-07T01:34:16;7.65;;;2.80;;
49460;SDS011;35355;49.198;-0.368;2023-05-07T01:36:42;9.20;;;1.70;;
49460;SDS011;35355;49.198;-0.368;2023-05-07T01:39:09;5.60;;;1.80;;
49460;SDS011;35355;49.198;-0.368;2023-05-07T01:41:35;5.13;;;1.73;;
49460;SDS011;35355;49.198;-0.368;2023-05-07T01:44:01;6.53;;;1.70;;
49460;SDS011;35355;49.198;-0.368;2023-05-07T01:46:28;4.38;;;1.50;;
49460;SDS011;35355;49.198;-0.368;2023-05-07T01:48:55;5.63;;;1.60;;
49460;SDS011;35355;49.198;-0.368;2023-05-07T01:51:20;7.38;;;2.40;;
49460;SDS011;35355;49.198;-0.368;2023-05-07T01:53:47;8.00;;;1.50;;
49460;SDS011;35355;49.198;-0.368;2023-05-07T01:56:16;6.32;;;1.80;;
49460;SDS011;35355;49.198;-0.368;2023-05-07T01:58:42;6.47;;;1.98;;
49460;SDS011;35355;49.198;-0.368;2023-05-07T02:01:07;4.05;;;1.50;;
49460;SDS011;35355;49.198;-0.368;2023-05-07T02:03:33;2.92;;;1.33;;
49460;SDS011;35355;49.198;-0.368;2023-05-07T02:05:58;4.43;;;1.42;;
49460;SDS011;35355;49.198;-0.368;2023-05-07T02:08:23;4.20;;;1.90;;
49460;SDS011;35355;49.198;-0.368;2023-05-07T02:10:49;3.63;;;1.40;;
49460;SDS011;35355;49.198;-0.368;2023-05-07T02:13:16;4.65;;;1.75;;
49460;SDS011;35355;49.198;-0.368;2023-05-07T02:15:41;3.95;;;1.50;;
49460;SDS011;35355;49.198;-0.368;2023-05-07T02:18:07;8.43;;;2.22;;
49460;SDS011;35355;49.198;-0.368;2023-05-07T02:20:34;6.72;;;1.60;;
49460;SDS011;35355;49.198;-0.368;2023-05-07T02:22:59;6.72;;;1.48;;
49460;SDS011;35355;49.198;-0.368;2023-05-07T02:25:25;6.60;;;1.60;;
49460;SDS011;35355;49.198;-0.368;2023-05-07T02:27:51;9.02;;;1.67;;
49460;SDS011;35355;49.198;-0.368;2023-05-07T02:30:16;3.50;;;1.27;;
49460;SDS011;35355;49.198;-0.368;2023-05-07T02:32:41;9.10;;;1.73;;
49460;SDS011;35355;49.198;-0.368;2023-05-07T02:35:07;3.75;;;1.45;;
49460;SDS011;35355;49.198;-0.368;2023-05-07T02:37:32;10.90;;;2.40;;
49460;SDS011;35355;49.198;-0.368;2023-05-07T02:39:58;4.25;;;1.50;;
49460;SDS011;35355;49.198;-0.368;2023-05-07T02:42:23;9.30;;;1.98;;
49460;SDS011;35355;49.198;-0.368;2023-05-07T02:44:48;2.15;;;1.23;;
49460;SDS011;35355;49.198;-0.368;2023-05-07T02:47:14;2.45;;;1.23;;
49460;SDS011;35355;49.198;-0.368;2023-05-07T02:49:40;7.53;;;1.60;;
49460;SDS011;35355;49.198;-0.368;2023-05-07T02:52:06;6.47;;;1.65;;
49460;SDS011;35355;49.198;-0.368;2023-05-07T02:54:31;6.07;;;1.80;;
49460;SDS011;35355;49.198;-0.368;2023-05-07T02:56:57;5.85;;;1.42;;
49460;SDS011;35355;49.198;-0.368;2023-05-07T02:59:23;8.55;;;2.15;;
49460;SDS011;35355;49.198;-0.368;2023-05-07T03:01:48;2.75;;;1.50;;
49460;SDS011;35355;49.198;-0.368;2023-05-07T03:04:14;6.25;;;2.00;;
49460;SDS011;35355;49.198;-0.368;2023-05-07T03:06:39;4.50;;;2.10;;
49460;SDS011;35355;49.198;-0.368;2023-05-07T03:09:05;5.10;;;2.00;;
49460;SDS011;35355;49.198;-0.368;2023-05-07T03:11:30;8.52;;;2.20;;
49460;SDS011;35355;49.198;-0.368;2023-05-07T03:13:55;9.55;;;2.75;;
49460;SDS011;35355;49.198;-0.368;2023-05-07T03:16:21;5.25;;;3.15;;
49460;SDS011;35355;49.198;-0.368;2023-05-07T03:18:46;5.65;;;2.38;;
49460;SDS011;35355;49.198;-0.368;2023-05-07T03:21:11;11.75;;;3.05;;
49460;SDS011;35355;49.198;-0.368;2023-05-07T03:23:37;5.88;;;2.22;;
49460;SDS011;35355;49.198;-0.368;2023-05-07T03:26:02;9.27;;;3.03;;
49460;SDS011;35355;49.198;-0.368;2023-05-07T03:28:28;5.40;;;2.40;;
49460;SDS011;35355;49.198;-0.368;2023-05-07T03:30:53;6.50;;;2.53;;
49460;SDS011;35355;49.198;-0.368;2023-05-07T03:33:18;7.25;;;2.72;;
49460;SDS011;35355;49.198;-0.368;2023-05-07T03:35:44;6.00;;;2.70;;
49460;SDS011;35355;49.198;-0.368;2023-05-07T03:38:09;6.85;;;2.83;;
49460;SDS011;35355;49.198;-0.368;2023-05-07T03:40:35;7.47;;;2.50;;
49460;SDS011;35355;49.198;-0.368;2023-05-07T03:43:00;12.73;;;2.53;;
49460;SDS011;35355;49.198;-0.368;2023-05-07T03:45:25;5.72;;;2.30;;
49460;SDS011;35355;49.198;-0.368;2023-05-07T03:47:51;9.18;;;3.67;;
49460;SDS011;35355;49.198;-0.368;2023-05-07T03:50:16;9.80;;;2.97;;
49460;SDS011;35355;49.198;-0.368;2023-05-07T03:52:42;8.57;;;2.55;;
49460;SDS011;35355;49.198;-0.368;2023-05-07T03:55:07;9.50;;;3.40;;
49460;SDS011;35355;49.198;-0.368;2023-05-07T03:57:33;5.28;;;2.70;;
49460;SDS011;35355;49.198;-0.368;2023-05-07T03:59:58;12.18;;;3.10;;
49460;SDS011;35355;49.198;-0.368;2023-05-07T04:02:24;6.20;;;3.10;;
49460;SDS011;35355;49.198;-0.368;2023-05-07T04:04:49;7.03;;;3.53;;
49460;SDS011;35355;49.198;-0.368;2023-05-07T04:07:15;10.23;;;3.70;;
49460;SDS011;35355;49.198;-0.368;2023-05-07T04:09:40;8.10;;;2.90;;
49460;SDS011;35355;49.198;-0.368;2023-05-07T04:12:06;11.30;;;3.33;;
49460;SDS011;35355;49.198;-0.368;2023-05-07T04:14:31;9.38;;;3.42;;
49460;SDS011;35355;49.198;-0.368;2023-05-07T04:16:57;8.98;;;3.10;;
49460;SDS011;35355;49.198;-0.368;2023-05-07T04:19:24;10.70;;;3.55;;
49460;SDS011;35355;49.198;-0.368;2023-05-07T04:21:49;7.55;;;2.95;;
49460;SDS011;35355;49.198;-0.368;2023-05-07T04:24:15;11.02;;;3.90;;
49460;SDS011;35355;49.198;-0.368;2023-05-07T04:26:40;7.22;;;3.60;;
49460;SDS011;35355;49.198;-0.368;2023-05-07T04:29:06;11.93;;;2.70;;
49460;SDS011;35355;49.198;-0.368;2023-05-07T04:31:31;9.52;;;3.47;;
49460;SDS011;35355;49.198;-0.368;2023-05-07T04:33:57;6.28;;;2.90;;
49460;SDS011;35355;49.198;-0.368;2023-05-07T04:36:22;8.38;;;2.50;;
49460;SDS011;35355;49.198;-0.368;2023-05-07T04:38:47;7.30;;;2.72;;
49460;SDS011;35355;49.198;-0.368;2023-05-07T04:41:13;14.73;;;3.38;;
49460;SDS011;35355;49.198;-0.368;2023-05-07T04:43:38;8.38;;;2.88;;
49460;SDS011;35355;49.198;-0.368;2023-05-07T04:46:05;6.95;;;2.28;;
49460;SDS011;35355;49.198;-0.368;2023-05-07T04:48:30;8.18;;;2.97;;
49460;SDS011;35355;49.198;-0.368;2023-05-07T04:50:55;6.78;;;3.05;;
49460;SDS011;35355;49.198;-0.368;2023-05-07T04:53:21;12.07;;;2.60;;
49460;SDS011;35355;49.198;-0.368;2023-05-07T04:55:47;4.30;;;2.47;;
49460;SDS011;35355;49.198;-0.368;2023-05-07T04:58:13;6.43;;;3.13;;
49460;SDS011;35355;49.198;-0.368;2023-05-07T05:00:38;6.75;;;2.83;;
49460;SDS011;35355;49.198;-0.368;2023-05-07T05:03:05;6.80;;;2.83;;
49460;SDS011;35355;49.198;-0.368;2023-05-07T05:05:34;8.25;;;2.60;;
49460;SDS011;35355;49.198;-0.368;2023-05-07T05:07:59;9.88;;;3.42;;
49460;SDS011;35355;49.198;-0.368;2023-05-07T05:10:25;5.68;;;2.53;;
49460;SDS011;35355;49.198;-0.368;2023-05-07T05:12:50;7.45;;;2.78;;
49460;SDS011;35355;49.198;-0.368;2023-05-07T05:15:16;6.15;;;2.58;;
49460;SDS011;35355;49.198;-0.368;2023-05-07T05:17:42;6.82;;;3.00;;
49460;SDS011;35355;49.198;-0.368;2023-05-07T05:20:07;6.45;;;3.35;;
49460;SDS011;35355;49.198;-0.368;2023-05-07T05:22:34;4.55;;;2.28;;
49460;SDS011;35355;49.198;-0.368;2023-05-07T05:24:59;5.25;;;2.55;;
49460;SDS011;35355;49.198;-0.368;2023-05-07T05:27:25;6.57;;;2.10;;
49460;SDS011;35355;49.198;-0.368;2023-05-07T05:29:51;9.23;;;2.90;;
49460;SDS011;35355;49.198;-0.368;2023-05-07T05:32:16;10.52;;;2.85;;
49460;SDS011;35355;49.198;-0.368;2023-05-07T05:34:41;7.25;;;2.53;;
49460;SDS011;35355;49.198;-0.368;2023-05-07T05:37:07;9.85;;;2.72;;
49460;SDS011;35355;49.198;-0.368;2023-05-07T05:39:32;12.13;;;2.75;;
49460;SDS011;35355;49.198;-0.368;2023-05-07T05:41:57;6.68;;;2.42;;
49460;SDS011;35355;49.198;-0.368;2023-05-07T05:44:23;6.78;;;3.28;;
49460;SDS011;35355;49.198;-0.368;2023-05-07T05:46:48;8.80;;;3.10;;
49460;SDS011;35355;49.198;-0.368;2023-05-07T05:49:14;7.90;;;3.08;;
49460;SDS011;35355;49.198;-0.368;2023-05-07T05:51:40;5.82;;;2.58;;
49460;SDS011;35355;49.198;-0.368;2023-05-07T05:54:05;12.98;;;3.28;;
49460;SDS011;35355;49.198;-0.368;2023-05-07T05:56:30;4.10;;;2.10;;
49460;SDS011;35355;49.198;-0.368;2023-05-07T05:58:56;4.57;;;2.35;;
49460;SDS011;35355;49.198;-0.368;2023-05-07T06:01:21;5.28;;;2.38;;
49460;SDS011;35355;49.198;-0.368;2023-05-07T06:03:46;3.45;;;1.95;;
49460;SDS011;35355;49.198;-0.368;2023-05-07T06:06:12;7.20;;;2.45;;
49460;SDS011;35355;49.198;-0.368;2023-05-07T06:08:39;3.22;;;1.85;;
49460;SDS011;35355;49.198;-0.368;2023-05-07T06:11:04;5.03;;;2.20;;
49460;SDS011;35355;49.198;-0.368;2023-05-07T06:13:30;2.97;;;1.90;;
49460;SDS011;35355;49.198;-0.368;2023-05-07T06:15:55;3.80;;;2.70;;
49460;SDS011;35355;49.198;-0.368;2023-05-07T06:18:20;3.80;;;2.42;;
49460;SDS011;35355;49.198;-0.368;2023-05-07T06:20:46;4.50;;;2.38;;
49460;SDS011;35355;49.198;-0.368;2023-05-07T06:23:11;4.38;;;3.28;;
49460;SDS011;35355;49.198;-0.368;2023-05-07T06:25:36;4.60;;;3.05;;
49460;SDS011;35355;49.198;-0.368;2023-05-07T06:28:02;4.85;;;2.97;;
49460;SDS011;35355;49.198;-0.368;2023-05-07T06:30:27;5.82;;;2.78;;
49460;SDS011;35355;49.198;-0.368;2023-05-07T06:32:53;4.82;;;3.17;;
49460;SDS011;35355;49.198;-0.368;2023-05-07T06:35:18;3.72;;;2.72;;
49460;SDS011;35355;49.198;-0.368;2023-05-07T06:37:44;4.55;;;2.80;;
49460;SDS011;35355;49.198;-0.368;2023-05-07T06:40:09;4.28;;;3.33;;
49460;SDS011;35355;49.198;-0.368;2023-05-07T06:42:35;6.53;;;3.03;;
49460;SDS011;35355;49.198;-0.368;2023-05-07T06:45:02;7.18;;;2.88;;
49460;SDS011;35355;49.198;-0.368;2023-05-07T06:47:27;6.95;;;3.15;;
49460;SDS011;35355;49.198;-0.368;2023-05-07T06:49:53;4.03;;;2.78;;
49460;SDS011;35355;49.198;-0.368;2023-05-07T06:52:18;5.80;;;2.28;;
49460;SDS011;35355;49.198;-0.368;2023-05-07T06:54:43;4.75;;;2.88;;
49460;SDS011;35355;49.198;-0.368;2023-05-07T06:57:09;3.67;;;2.00;;
49460;SDS011;35355;49.198;-0.368;2023-05-07T06:59:34;3.55;;;2.65;;
49460;SDS011;35355;49.198;-0.368;2023-05-07T07:01:59;3.58;;;2.72;;
49460;SDS011;35355;49.198;-0.368;2023-05-07T07:04:25;4.15;;;2.90;;
49460;SDS011;35355;49.198;-0.368;2023-05-07T07:06:51;3.88;;;2.90;;
49460;SDS011;35355;49.198;-0.368;2023-05-07T07:09:17;5.03;;;2.88;;
49460;SDS011;35355;49.198;-0.368;2023-05-07T07:11:43;4.00;;;2.47;;
49460;SDS011;35355;49.198;-0.368;2023-05-07T07:14:08;4.22;;;2.28;;
49460;SDS011;35355;49.198;-0.368;2023-05-07T07:16:33;3.58;;;2.45;;
49460;SDS011;35355;49.198;-0.368;2023-05-07T07:18:59;3.45;;;1.95;;
49460;SDS011;35355;49.198;-0.368;2023-05-07T07:21:25;3.08;;;2.13;;
49460;SDS011;35355;49.198;-0.368;2023-05-07T07:23:50;2.50;;;1.70;;
49460;SDS011;35355;49.198;-0.368;2023-05-07T07:26:15;4.55;;;2.30;;
49460;SDS011;35355;49.198;-0.368;2023-05-07T07:28:44;2.50;;;1.70;;
49460;SDS011;35355;49.198;-0.368;2023-05-07T07:31:10;3.10;;;1.70;;
49460;SDS011;35355;49.198;-0.368;2023-05-07T07:33:36;3.22;;;1.63;;
49460;SDS011;35355;49.198;-0.368;2023-05-07T07:36:01;9.57;;;1.90;;
49460;SDS011;35355;49.198;-0.368;2023-05-07T07:38:26;3.47;;;2.15;;
49460;SDS011;35355;49.198;-0.368;2023-05-07T07:40:53;2.90;;;2.30;;
49460;SDS011;35355;49.198;-0.368;2023-05-07T07:43:18;3.03;;;2.08;;
49460;SDS011;35355;49.198;-0.368;2023-05-07T07:45:43;4.47;;;1.60;;
49460;SDS011;35355;49.198;-0.368;2023-05-07T07:48:09;2.47;;;1.83;;
49460;SDS011;35355;49.198;-0.368;2023-05-07T07:50:34;3.55;;;1.98;;
49460;SDS011;35355;49.198;-0.368;2023-05-07T07:53:00;2.10;;;1.50;;
49460;SDS011;35355;49.198;-0.368;2023-05-07T07:55:25;1.58;;;1.20;;
49460;SDS011;35355;49.198;-0.368;2023-05-07T07:57:52;1.45;;;0.98;;
49460;SDS011;35355;49.198;-0.368;2023-05-07T08:00:17;2.38;;;1.08;;
49460;SDS011;35355;49.198;-0.368;2023-05-07T08:02:42;1.52;;;1.00;;
49460;SDS011;35355;49.198;-0.368;2023-05-07T08:05:08;2.17;;;1.17;;
49460;SDS011;35355;49.198;-0.368;2023-05-07T08:07:33;2.22;;;1.00;;
49460;SDS011;35355;49.198;-0.368;2023-05-07T08:09:59;4.38;;;1.10;;
49460;SDS011;35355;49.198;-0.368;2023-05-07T08:12:24;3.08;;;0.98;;
49460;SDS011;35355;49.198;-0.368;2023-05-07T08:14:50;1.73;;;1.02;;
49460;SDS011;35355;49.198;-0.368;2023-05-07T08:17:15;3.50;;;0.77;;
49460;SDS011;35355;49.198;-0.368;2023-05-07T08:19:41;4.68;;;1.17;;
49460;SDS011;35355;49.198;-0.368;2023-05-07T08:22:08;1.35;;;0.88;;
49460;SDS011;35355;49.198;-0.368;2023-05-07T08:24:34;3.58;;;1.00;;
49460;SDS011;35355;49.198;-0.368;2023-05-07T08:26:59;2.03;;;1.13;;
49460;SDS011;35355;49.198;-0.368;2023-05-07T08:29:25;1.98;;;1.17;;
49460;SDS011;35355;49.198;-0.368;2023-05-07T08:31:50;1.55;;;1.27;;
49460;SDS011;35355;49.198;-0.368;2023-05-07T08:34:15;2.30;;;1.40;;
49460;SDS011;35355;49.198;-0.368;2023-05-07T08:36:41;3.33;;;1.08;;
49460;SDS011;35355;49.198;-0.368;2023-05-07T08:39:11;3.65;;;1.77;;
49460;SDS011;35355;49.198;-0.368;2023-05-07T08:41:36;4.90;;;1.70;;
49460;SDS011;35355;49.198;-0.368;2023-05-07T08:44:02;4.57;;;1.52;;
49460;SDS011;35355;49.198;-0.368;2023-05-07T08:46:30;2.10;;;1.45;;
49460;SDS011;35355;49.198;-0.368;2023-05-07T08:48:57;3.42;;;1.60;;
49460;SDS011;35355;49.198;-0.368;2023-05-07T08:51:22;2.78;;;1.58;;
49460;SDS011;35355;49.198;-0.368;2023-05-07T08:53:48;3.00;;;1.50;;
49460;SDS011;35355;49.198;-0.368;2023-05-07T08:56:15;4.45;;;2.00;;
49460;SDS011;35355;49.198;-0.368;2023-05-07T08:58:44;3.47;;;1.80;;
49460;SDS011;35355;49.198;-0.368;2023-05-07T09:01:12;4.65;;;2.28;;
49460;SDS011;35355;49.198;-0.368;2023-05-07T09:03:39;3.85;;;2.17;;
49460;SDS011;35355;49.198;-0.368;2023-05-07T09:06:04;3.15;;;1.80;;
49460;SDS011;35355;49.198;-0.368;2023-05-07T09:08:32;2.80;;;2.03;;
49460;SDS011;35355;49.198;-0.368;2023-05-07T09:10:58;6.60;;;2.42;;
49460;SDS011;35355;49.198;-0.368;2023-05-07T09:13:24;4.93;;;2.60;;
49460;SDS011;35355;49.198;-0.368;2023-05-07T09:15:49;4.47;;;2.65;;
49460;SDS011;35355;49.198;-0.368;2023-05-07T09:18:15;3.92;;;2.30;;
49460;SDS011;35355;49.198;-0.368;2023-05-07T09:20:40;2.60;;;1.70;;
49460;SDS011;35355;49.198;-0.368;2023-05-07T09:23:06;2.95;;;2.10;;
49460;SDS011;35355;49.198;-0.368;2023-05-07T09:25:33;4.22;;;2.40;;
49460;SDS011;35355;49.198;-0.368;2023-05-07T09:28:02;3.72;;;2.50;;
49460;SDS011;35355;49.198;-0.368;2023-05-07T09:30:32;4.93;;;2.38;;
49460;SDS011;35355;49.198;-0.368;2023-05-07T09:32:59;4.00;;;2.15;;
49460;SDS011;35355;49.198;-0.368;2023-05-07T09:35:25;5.55;;;2.30;;
49460;SDS011;35355;49.198;-0.368;2023-05-07T09:37:58;7.28;;;2.75;;
49460;SDS011;35355;49.198;-0.368;2023-05-07T09:40:26;5.85;;;2.80;;
49460;SDS011;35355;49.198;-0.368;2023-05-07T09:42:53;4.22;;;2.50;;
49460;SDS011;35355;49.198;-0.368;2023-05-07T09:47:48;3.97;;;2.50;;
49460;SDS011;35355;49.198;-0.368;2023-05-07T09:50:15;4.72;;;3.08;;
49460;SDS011;35355;49.198;-0.368;2023-05-07T09:52:41;5.35;;;2.50;;
49460;SDS011;35355;49.198;-0.368;2023-05-07T09:55:08;4.05;;;2.88;;
49460;SDS011;35355;49.198;-0.368;2023-05-07T09:57:35;11.10;;;4.47;;
49460;SDS011;35355;49.198;-0.368;2023-05-07T10:00:01;11.18;;;4.88;;
49460;SDS011;35355;49.198;-0.368;2023-05-07T10:02:29;21.85;;;6.13;;
49460;SDS011;35355;49.198;-0.368;2023-05-07T10:04:55;12.25;;;5.05;;
49460;SDS011;35355;49.198;-0.368;2023-05-07T10:07:21;9.85;;;5.50;;
49460;SDS011;35355;49.198;-0.368;2023-05-07T10:09:47;13.27;;;4.95;;
49460;SDS011;35355;49.198;-0.368;2023-05-07T10:12:13;23.48;;;5.63;;
49460;SDS011;35355;49.198;-0.368;2023-05-07T10:14:39;9.98;;;5.53;;
49460;SDS011;35355;49.198;-0.368;2023-05-07T10:17:05;14.93;;;4.10;;
49460;SDS011;35355;49.198;-0.368;2023-05-07T10:19:31;8.20;;;4.35;;
49460;SDS011;35355;49.198;-0.368;2023-05-07T10:22:02;6.32;;;3.90;;
49460;SDS011;35355;49.198;-0.368;2023-05-07T10:24:34;8.15;;;4.20;;
49460;SDS011;35355;49.198;-0.368;2023-05-07T10:27:02;6.57;;;3.88;;
49460;SDS011;35355;49.198;-0.368;2023-05-07T10:34:53;8.93;;;3.40;;
49460;SDS011;35355;49.198;-0.368;2023-05-07T10:37:21;6.82;;;3.70;;
49460;SDS011;35355;49.198;-0.368;2023-05-07T10:39:47;7.75;;;4.07;;
49460;SDS011;35355;49.198;-0.368;2023-05-07T10:42:13;7.05;;;3.92;;
49460;SDS011;35355;49.198;-0.368;2023-05-07T10:44:39;6.63;;;3.25;;
49460;SDS011;35355;49.198;-0.368;2023-05-07T10:47:09;7.80;;;3.25;;
49460;SDS011;35355;49.198;-0.368;2023-05-07T10:52:22;7.15;;;3.25;;
49460;SDS011;35355;49.198;-0.368;2023-05-07T10:55:36;3.35;;;2.03;;
49460;SDS011;35355;49.198;-0.368;2023-05-07T10:57:50;3.78;;;1.40;;
49460;SDS011;35355;49.198;-0.368;2023-05-07T11:05:25;4.70;;;1.60;;
49460;SDS011;35355;49.198;-0.368;2023-05-07T11:07:54;1.77;;;0.90;;
49460;SDS011;35355;49.198;-0.368;2023-05-07T11:10:21;2.03;;;0.90;;
49460;SDS011;35355;49.198;-0.368;2023-05-07T11:15:13;2.67;;;0.90;;
49460;SDS011;35355;49.198;-0.368;2023-05-07T11:17:54;1.55;;;0.88;;
49460;SDS011;35355;49.198;-0.368;2023-05-07T11:20:38;3.22;;;0.82;;
49460;SDS011;35355;49.198;-0.368;2023-05-07T11:26:00;3.13;;;1.20;;
49460;SDS011;35355;49.198;-0.368;2023-05-07T11:28:28;1.33;;;0.57;;
49460;SDS011;35355;49.198;-0.368;2023-05-07T11:30:56;1.23;;;0.68;;
49460;SDS011;35355;49.198;-0.368;2023-05-07T11:33:22;4.68;;;0.70;;
49460;SDS011;35355;49.198;-0.368;2023-05-07T11:35:47;2.03;;;0.88;;
49460;SDS011;35355;49.198;-0.368;2023-05-07T11:38:13;1.42;;;0.65;;
49460;SDS011;35355;49.198;-0.368;2023-05-07T11:40:58;1.10;;;0.50;;
49460;SDS011;35355;49.198;-0.368;2023-05-07T11:43:27;1.35;;;0.60;;
49460;SDS011;35355;49.198;-0.368;2023-05-07T11:45:53;1.48;;;0.40;;
49460;SDS011;35355;49.198;-0.368;2023-05-07T11:48:18;2.78;;;1.20;;
49460;SDS011;35355;49.198;-0.368;2023-05-07T11:53:28;2.35;;;0.95;;
49460;SDS011;35355;49.198;-0.368;2023-05-07T11:56:00;1.60;;;0.80;;
49460;SDS011;35355;49.198;-0.368;2023-05-07T11:58:31;1.63;;;0.73;;
49460;SDS011;35355;49.198;-0.368;2023-05-07T12:00:56;2.50;;;0.60;;
49460;SDS011;35355;49.198;-0.368;2023-05-07T12:03:22;1.75;;;0.73;;
49460;SDS011;35355;49.198;-0.368;2023-05-07T12:05:47;1.52;;;0.85;;
49460;SDS011;35355;49.198;-0.368;2023-05-07T12:08:13;2.88;;;0.93;;
49460;SDS011;35355;49.198;-0.368;2023-05-07T12:10:41;2.25;;;0.73;;
49460;SDS011;35355;49.198;-0.368;2023-05-07T12:13:13;1.30;;;0.60;;
49460;SDS011;35355;49.198;-0.368;2023-05-07T12:15:43;1.90;;;0.75;;
49460;SDS011;35355;49.198;-0.368;2023-05-07T12:18:08;3.42;;;0.90;;
49460;SDS011;35355;49.198;-0.368;2023-05-07T12:20:35;2.55;;;1.08;;
49460;SDS011;35355;49.198;-0.368;2023-05-07T12:23:01;2.08;;;0.80;;
49460;SDS011;35355;49.198;-0.368;2023-05-07T12:25:30;4.30;;;0.68;;
49460;SDS011;35355;49.198;-0.368;2023-05-07T12:27:56;3.65;;;0.80;;
49460;SDS011;35355;49.198;-0.368;2023-05-07T12:30:24;3.05;;;0.82;;
49460;SDS011;35355;49.198;-0.368;2023-05-07T12:32:52;2.38;;;0.50;;
49460;SDS011;35355;49.198;-0.368;2023-05-07T12:35:26;2.80;;;0.65;;
49460;SDS011;35355;49.198;-0.368;2023-05-07T12:37:55;3.05;;;0.80;;
49460;SDS011;35355;49.198;-0.368;2023-05-07T12:40:24;1.98;;;0.80;;
49460;SDS011;35355;49.198;-0.368;2023-05-07T12:42:52;4.57;;;0.90;;
49460;SDS011;35355;49.198;-0.368;2023-05-07T12:45:21;2.88;;;0.88;;
49460;SDS011;35355;49.198;-0.368;2023-05-07T12:47:46;3.60;;;1.10;;
49460;SDS011;35355;49.198;-0.368;2023-05-07T12:50:13;2.17;;;1.08;;
49460;SDS011;35355;49.198;-0.368;2023-05-07T12:52:39;2.65;;;1.05;;
49460;SDS011;35355;49.198;-0.368;2023-05-07T12:55:05;2.85;;;0.80;;
49460;SDS011;35355;49.198;-0.368;2023-05-07T12:57:37;4.80;;;1.08;;
49460;SDS011;35355;49.198;-0.368;2023-05-07T13:00:07;3.83;;;0.90;;
49460;SDS011;35355;49.198;-0.368;2023-05-07T13:02:33;2.90;;;0.80;;
49460;SDS011;35355;49.198;-0.368;2023-05-07T13:05:00;3.85;;;1.13;;
49460;SDS011;35355;49.198;-0.368;2023-05-07T13:07:26;3.13;;;0.85;;
49460;SDS011;35355;49.198;-0.368;2023-05-07T13:09:51;2.88;;;1.00;;
49460;SDS011;35355;49.198;-0.368;2023-05-07T13:12:16;3.35;;;0.90;;
49460;SDS011;35355;49.198;-0.368;2023-05-07T13:14:42;3.45;;;0.75;;
49460;SDS011;35355;49.198;-0.368;2023-05-07T13:17:07;3.53;;;1.20;;
49460;SDS011;35355;49.198;-0.368;2023-05-07T13:19:32;7.20;;;3.65;;
49460;SDS011;35355;49.198;-0.368;2023-05-07T13:21:58;10.73;;;6.28;;
49460;SDS011;35355;49.198;-0.368;2023-05-07T13:24:23;10.63;;;6.15;;
49460;SDS011;35355;49.198;-0.368;2023-05-07T13:26:48;11.88;;;5.82;;
49460;SDS011;35355;49.198;-0.368;2023-05-07T13:29:14;10.52;;;5.68;;
49460;SDS011;35355;49.198;-0.368;2023-05-07T13:31:39;9.05;;;5.07;;
49460;SDS011;35355;49.198;-0.368;2023-05-07T13:34:09;14.48;;;5.90;;
49460;SDS011;35355;49.198;-0.368;2023-05-07T13:36:34;8.30;;;5.20;;
49460;SDS011;35355;49.198;-0.368;2023-05-07T13:39:02;8.75;;;5.57;;
49460;SDS011;35355;49.198;-0.368;2023-05-07T13:41:28;8.18;;;5.55;;
49460;SDS011;35355;49.198;-0.368;2023-05-07T13:43:54;8.23;;;5.20;;
49460;SDS011;35355;49.198;-0.368;2023-05-07T13:46:21;9.18;;;6.45;;
49460;SDS011;35355;49.198;-0.368;2023-05-07T13:48:46;10.65;;;5.75;;
49460;SDS011;35355;49.198;-0.368;2023-05-07T13:51:12;11.05;;;6.57;;
49460;SDS011;35355;49.198;-0.368;2023-05-07T13:53:37;9.93;;;6.78;;
49460;SDS011;35355;49.198;-0.368;2023-05-07T13:56:03;12.88;;;7.32;;
49460;SDS011;35355;49.198;-0.368;2023-05-07T13:58:29;11.35;;;6.47;;
49460;SDS011;35355;49.198;-0.368;2023-05-07T14:00:55;10.50;;;7.13;;
49460;SDS011;35355;49.198;-0.368;2023-05-07T14:03:20;11.05;;;6.93;;
49460;SDS011;35355;49.198;-0.368;2023-05-07T14:05:45;11.93;;;6.68;;
49460;SDS011;35355;49.198;-0.368;2023-05-07T14:08:11;13.65;;;7.13;;
49460;SDS011;35355;49.198;-0.368;2023-05-07T14:10:38;17.27;;;7.82;;
49460;SDS011;35355;49.198;-0.368;2023-05-07T14:13:04;11.50;;;7.20;;
49460;SDS011;35355;49.198;-0.368;2023-05-07T14:15:30;14.32;;;7.32;;
49460;SDS011;35355;49.198;-0.368;2023-05-07T14:17:57;13.98;;;7.63;;
49460;SDS011;35355;49.198;-0.368;2023-05-07T14:20:23;12.10;;;7.03;;
49460;SDS011;35355;49.198;-0.368;2023-05-07T14:22:49;14.73;;;7.45;;
49460;SDS011;35355;49.198;-0.368;2023-05-07T14:25:15;14.02;;;8.10;;
49460;SDS011;35355;49.198;-0.368;2023-05-07T14:27:40;13.18;;;7.97;;
49460;SDS011;35355;49.198;-0.368;2023-05-07T14:30:06;15.80;;;9.00;;
49460;SDS011;35355;49.198;-0.368;2023-05-07T14:32:32;13.93;;;9.00;;
49460;SDS011;35355;49.198;-0.368;2023-05-07T14:34:58;15.35;;;7.97;;
49460;SDS011;35355;49.198;-0.368;2023-05-07T14:37:23;14.85;;;8.93;;
49460;SDS011;35355;49.198;-0.368;2023-05-07T14:39:49;13.93;;;8.55;;
49460;SDS011;35355;49.198;-0.368;2023-05-07T14:42:14;13.93;;;8.88;;
49460;SDS011;35355;49.198;-0.368;2023-05-07T14:44:39;14.93;;;8.57;;
49460;SDS011;35355;49.198;-0.368;2023-05-07T14:47:06;16.02;;;10.27;;
49460;SDS011;35355;49.198;-0.368;2023-05-07T14:49:32;14.18;;;8.68;;
49460;SDS011;35355;49.198;-0.368;2023-05-07T14:51:58;11.38;;;7.20;;